Brooke Mckenzie — WDE9826 — position and weather

sailwx.info

Track history (hours):
 
Tides and Currents Weather Stations Pressure Air Temp Water Temp Dewpoint Dewpoint Depression Visibility Wind Speed Wind Dir Waves Ship Positions

Brooke Mckenzie

Owner: Western Rivers Boat Management, Inc., Paducah, KY. More information available from US FCC via Universal Licensing System and Coast Guard Vessel Documentation Center.

Last reported at 2017-Sep-25 13:30 UTC. Time now 2017-Sep-25 13:42 UTC.
Position N 38°58' W 090°27'.

Length 41 m; draft 3.3 m.

Type: Towing. MMSI: 367421740.

Date/timePositionNaut miles runAvg speedWind from/ knotsBaromVisibWave heightAir tempDewpointWater temp
2017-Sep-25 13:30N 38°58' W 090°27'2 4.9
2017-Sep-25 13:00N 38°58' W 090°30'2 0.3
2017-Sep-25 05:40N 38°58' W 090°33'1 4.9
2017-Sep-25 05:30N 38°58' W 090°32'2 3.3
2017-Sep-25 05:00N 38°58' W 090°30'0 0.2
2017-Sep-25 04:30N 38°58' W 090°30'2 4.5
2017-Sep-25 04:00N 38°58' W 090°27'2 4.7
2017-Sep-25 03:30N 38°58' W 090°24'0 0.0
2017-Sep-25 03:00N 38°58' W 090°24'2 3.8
2017-Sep-25 02:30N 38°57' W 090°22'2 4.8
2017-Sep-25 02:00N 38°56' W 090°19'  
2017-Sep-20 09:44N 41°04' W 090°57'1 4.1
2017-Sep-20 09:30N 41°05' W 090°57'2 3.9
2017-Sep-20 08:59N 41°07' W 090°58'2 4.2
2017-Sep-20 08:30N 41°09' W 090°59'  
Track history (hours):
 
Tides and Currents Weather Stations Pressure Air Temp Water Temp Dewpoint Dewpoint Depression Visibility Wind Speed Wind Dir Waves Ship Positions

Brooke Mckenzie

Owner: Western Rivers Boat Management, Inc., Paducah, KY. More information available from US FCC via Universal Licensing System and Coast Guard Vessel Documentation Center.

Last reported at 2017-Sep-25 13:30 UTC. Time now 2017-Sep-25 13:42 UTC.
Position N 38°58' W 090°27'.

Length 41 m; draft 3.3 m.

Type: Towing. MMSI: 367421740.

Date/timePositionNaut miles runAvg speedWind from/ knotsBaromVisibWave heightAir tempDewpointWater temp
2017-Sep-25 13:30N 38°58' W 090°27'2 4.9
2017-Sep-25 13:00N 38°58' W 090°30'2 0.3
2017-Sep-25 05:40N 38°58' W 090°33'1 4.9
2017-Sep-25 05:30N 38°58' W 090°32'2 3.3
2017-Sep-25 05:00N 38°58' W 090°30'0 0.2
2017-Sep-25 04:30N 38°58' W 090°30'2 4.5
2017-Sep-25 04:00N 38°58' W 090°27'2 4.7
2017-Sep-25 03:30N 38°58' W 090°24'0 0.0
2017-Sep-25 03:00N 38°58' W 090°24'2 3.8
2017-Sep-25 02:30N 38°57' W 090°22'2 4.8
2017-Sep-25 02:00N 38°56' W 090°19'  
2017-Sep-20 09:44N 41°04' W 090°57'1 4.1
2017-Sep-20 09:30N 41°05' W 090°57'2 3.9
2017-Sep-20 08:59N 41°07' W 090°58'2 4.2
2017-Sep-20 08:30N 41°09' W 090°59'  

Dump ship's entire track history